createdAt,value
2022-08-10T00:00:56.022Z,68.43
2022-08-10T00:03:24.249Z,68.60
2022-08-10T00:05:55.391Z,68.45
2022-08-10T00:08:25.470Z,68.33
2022-08-10T00:10:54.274Z,67.84
2022-08-10T00:13:23.298Z,67.86
2022-08-10T00:15:55.714Z,67.89
2022-08-10T00:18:35.148Z,67.84
2022-08-10T00:21:09.877Z,67.99
2022-08-10T00:23:39.390Z,67.72
2022-08-10T00:26:08.157Z,67.71
2022-08-10T00:28:36.407Z,68.09
2022-08-10T00:31:04.643Z,68.21
2022-08-10T00:33:32.827Z,68.21
2022-08-10T00:36:03.615Z,68.13
2022-08-10T00:38:34.793Z,68.03
2022-08-10T00:41:03.146Z,68.06
2022-08-10T00:43:31.487Z,67.92
2022-08-10T00:46:00.476Z,68.23
2022-08-10T00:48:31.134Z,67.82
2022-08-10T00:51:00.661Z,68.30
2022-08-10T00:53:29.454Z,67.58
2022-08-10T00:56:35.039Z,68.17
2022-08-10T00:58:48.228Z,67.94
2022-08-10T01:02:11.072Z,68.04
2022-08-10T01:04:36.368Z,67.95
2022-08-10T01:07:07.509Z,68.03
2022-08-10T01:09:55.721Z,67.59
2022-08-10T01:12:38.259Z,67.73
2022-08-10T01:15:15.368Z,67.54
2022-08-10T01:17:53.755Z,67.81
2022-08-10T01:20:37.289Z,67.46
2022-08-10T01:23:37.688Z,67.63
2022-08-10T01:26:40.646Z,67.63
2022-08-10T01:29:53.760Z,67.31
2022-08-10T01:32:31.684Z,67.30
2022-08-10T01:35:07.490Z,67.07
2022-08-10T01:37:40.820Z,67.37
2022-08-10T01:40:13.795Z,67.33
2022-08-10T01:42:47.440Z,67.17
2022-08-10T01:45:17.489Z,66.68
2022-08-10T01:48:06.164Z,66.81
2022-08-10T01:50:58.924Z,66.96
2022-08-10T01:53:40.813Z,67.12
2022-08-10T01:56:12.045Z,66.79
2022-08-10T01:58:41.419Z,66.93
2022-08-10T02:01:16.951Z,67.24
2022-08-10T02:04:04.462Z,66.88
2022-08-10T02:06:36.995Z,66.84
2022-08-10T02:09:07.731Z,66.98
2022-08-10T02:11:55.799Z,67.16
2022-08-10T02:14:32.995Z,66.41
2022-08-10T02:17:05.199Z,66.64
2022-08-10T02:19:38.229Z,66.40
2022-08-10T02:22:37.919Z,66.25
2022-08-10T02:25:00.511Z,66.21
2022-08-10T02:27:30.101Z,65.73
2022-08-10T02:30:00.230Z,65.40
2022-08-10T02:32:36.179Z,65.22
2022-08-10T02:35:21.961Z,64.76
2022-08-10T02:37:54.449Z,64.61
2022-08-10T02:45:01.645Z,64.38
2022-08-10T02:45:19.855Z,64.74
2022-08-10T02:46:19.862Z,64.35
2022-08-10T02:48:59.167Z,64.14
2022-08-10T02:52:06.266Z,64.06
2022-08-10T02:54:24.216Z,64.15
2022-08-10T02:56:56.621Z,64.11
2022-08-10T02:59:39.806Z,64.29
2022-08-10T03:02:11.962Z,63.93
2022-08-10T03:04:57.082Z,64.20
2022-08-10T03:07:42.908Z,63.60
2022-08-10T03:10:18.248Z,63.56
2022-08-10T03:12:50.912Z,63.69
2022-08-10T03:15:22.252Z,63.53
2022-08-10T03:17:56.951Z,63.56
2022-08-10T03:20:37.956Z,62.64
2022-08-10T03:23:13.005Z,62.53
2022-08-10T03:25:53.111Z,62.71
2022-08-10T03:28:23.883Z,62.87
2022-08-10T03:30:53.227Z,62.39
2022-08-10T03:33:23.375Z,61.51
2022-08-10T03:36:40.397Z,60.26
2022-08-10T03:38:43.756Z,58.64
2022-08-10T03:41:16.226Z,58.37
2022-08-10T03:43:47.917Z,57.96
2022-08-10T03:46:19.511Z,57.43
2022-08-10T03:48:51.125Z,56.86
2022-08-10T03:51:20.768Z,56.26
2022-08-10T03:54:05.007Z,55.46
2022-08-10T03:56:36.582Z,55.46
2022-08-10T03:59:06.168Z,55.28
2022-08-10T04:02:45.981Z,55.27
2022-08-10T04:04:25.314Z,55.13
2022-08-10T04:06:55.708Z,54.10
2022-08-10T04:09:42.878Z,52.66
2022-08-10T04:12:15.897Z,52.86
2022-08-10T04:14:51.431Z,52.49
2022-08-10T04:18:03.728Z,53.14
2022-08-10T04:20:19.630Z,54.96
2022-08-10T04:22:52.501Z,54.17
2022-08-10T04:25:23.716Z,55.50
2022-08-10T04:27:52.432Z,54.91
2022-08-10T04:30:21.443Z,54.66
2022-08-10T04:32:55.276Z,54.54
2022-08-10T04:35:25.295Z,54.58
2022-08-10T04:37:54.897Z,55.49
2022-08-10T04:40:30.193Z,54.30
2022-08-10T04:43:10.775Z,54.01
2022-08-10T04:45:48.293Z,54.20
2022-08-10T04:48:42.838Z,53.30
2022-08-10T04:51:18.508Z,52.24
2022-08-10T04:54:03.107Z,50.71
2022-08-10T04:56:37.540Z,50.66
2022-08-10T04:59:06.990Z,49.02
2022-08-10T05:02:21.800Z,49.36
2022-08-10T05:04:36.985Z,50.92
2022-08-10T05:07:09.429Z,50.14
2022-08-10T05:10:04.633Z,50.47
2022-08-10T05:12:27.945Z,48.78
2022-08-10T05:14:56.217Z,48.07
2022-08-10T05:17:24.957Z,48.66
2022-08-10T05:20:03.841Z,47.97
2022-08-10T05:22:38.512Z,47.56
2022-08-10T05:25:08.390Z,48.02
2022-08-10T05:27:38.413Z,46.10
2022-08-10T05:30:09.547Z,47.23
2022-08-10T05:32:57.538Z,47.97
2022-08-10T05:35:51.824Z,47.02
2022-08-10T05:38:19.097Z,45.07
2022-08-10T05:40:48.472Z,44.57
2022-08-10T05:43:19.462Z,44.62
2022-08-10T05:46:17.053Z,43.83
2022-08-10T05:48:55.463Z,44.10
2022-08-10T05:51:26.717Z,44.63
2022-08-10T05:54:01.747Z,43.84
2022-08-10T05:56:55.642Z,42.46
2022-08-10T06:00:11.102Z,44.18
2022-08-10T06:02:31.236Z,44.77
2022-08-10T06:05:09.066Z,44.30
2022-08-10T06:07:41.435Z,43.79
2022-08-10T06:10:31.354Z,43.56
2022-08-10T06:13:27.059Z,42.84
2022-08-10T06:16:04.306Z,43.55
2022-08-10T06:18:33.001Z,45.03
2022-08-10T06:21:01.828Z,44.49
2022-08-10T06:23:31.709Z,43.96
2022-08-10T06:26:10.409Z,43.14
2022-08-10T06:28:44.076Z,41.64
2022-08-10T06:31:46.811Z,42.24
2022-08-10T06:34:21.674Z,42.78
2022-08-10T06:36:50.329Z,42.21
2022-08-10T06:39:35.600Z,41.41
2022-08-10T06:42:16.161Z,40.75
2022-08-10T06:44:58.960Z,41.14
2022-08-10T06:47:35.864Z,42.77
2022-08-10T06:50:09.671Z,42.41
2022-08-10T06:52:39.447Z,42.61
2022-08-10T06:55:12.083Z,42.49
2022-08-10T06:57:59.720Z,41.47
2022-08-10T07:00:33.370Z,41.37
2022-08-10T07:03:09.095Z,40.63
2022-08-10T07:05:42.918Z,40.77
2022-08-10T07:08:12.196Z,41.31
2022-08-10T07:10:45.847Z,42.40
2022-08-10T07:14:16.771Z,41.29
2022-08-10T07:16:09.314Z,42.58
2022-08-10T07:18:41.489Z,41.76
2022-08-10T07:21:10.494Z,42.00
2022-08-10T07:23:58.060Z,41.27
2022-08-10T07:26:30.022Z,41.60
2022-08-10T07:29:00.598Z,40.01
2022-08-10T07:31:55.687Z,40.28
2022-08-10T07:34:29.263Z,41.26
2022-08-10T07:37:02.277Z,41.70
2022-08-10T07:40:02.799Z,40.67
2022-08-10T07:42:23.390Z,40.12
2022-08-10T07:44:52.338Z,40.56
2022-08-10T07:47:54.038Z,40.61
2022-08-10T07:50:20.181Z,42.24
2022-08-10T07:52:50.557Z,42.88
2022-08-10T07:56:03.407Z,43.10
2022-08-10T07:58:11.442Z,44.32
2022-08-10T08:00:41.064Z,44.42
2022-08-10T08:03:13.403Z,43.97
2022-08-10T08:05:58.173Z,42.92
2022-08-10T08:08:33.351Z,43.37
2022-08-10T08:11:02.774Z,43.47
2022-08-10T08:13:32.980Z,43.28
2022-08-10T08:16:20.786Z,43.36
2022-08-10T08:19:23.622Z,43.47
2022-08-10T08:24:06.196Z,43.51
2022-08-10T08:24:36.667Z,42.80
2022-08-10T08:27:07.953Z,41.47
2022-08-10T08:29:38.783Z,41.54
2022-08-10T08:32:08.096Z,42.51
2022-08-10T08:34:39.905Z,42.59
2022-08-10T08:37:12.464Z,41.94
2022-08-10T08:39:47.523Z,42.24
2022-08-10T08:42:28.904Z,43.08
2022-08-10T08:45:10.060Z,42.50
2022-08-10T08:48:04.720Z,42.62
2022-08-10T08:50:50.935Z,42.78
2022-08-10T08:54:03.575Z,42.04
2022-08-10T08:56:35.808Z,43.59
2022-08-10T08:59:15.828Z,43.75
2022-08-10T09:01:59.582Z,44.07
2022-08-10T09:04:48.504Z,45.02
2022-08-10T09:08:01.187Z,44.96
2022-08-10T09:10:37.662Z,45.11
2022-08-10T09:13:11.719Z,45.04
2022-08-10T09:15:50.216Z,44.39
2022-08-10T09:18:25.287Z,44.34
2022-08-10T09:21:00.240Z,43.77
2022-08-10T09:24:01.933Z,44.75
2022-08-10T09:26:35.947Z,44.82
2022-08-10T09:29:12.526Z,44.55
2022-08-10T09:32:54.927Z,44.20
2022-08-10T09:36:24.753Z,44.44
2022-08-10T09:38:02.839Z,43.69
2022-08-10T09:40:57.815Z,44.01
2022-08-10T09:43:41.584Z,43.98
2022-08-10T09:46:17.881Z,44.27
2022-08-10T09:48:56.002Z,44.57
2022-08-10T09:51:47.703Z,43.04
2022-08-10T09:54:40.632Z,43.40
2022-08-10T09:57:44.016Z,43.95
2022-08-10T10:00:12.937Z,43.47
2022-08-10T10:02:52.603Z,43.51
2022-08-10T10:05:34.193Z,43.22
2022-08-10T10:08:12.211Z,43.64
2022-08-10T10:10:48.124Z,43.33
2022-08-10T10:13:48.995Z,42.96
2022-08-10T10:16:38.274Z,43.25
2022-08-10T10:19:23.707Z,43.24
2022-08-10T10:22:00.549Z,42.08
2022-08-10T10:24:36.957Z,42.76
2022-08-10T10:27:20.388Z,42.46
2022-08-10T10:30:01.400Z,42.13
2022-08-10T10:32:40.543Z,42.33
2022-08-10T10:35:23.633Z,42.35
2022-08-10T10:38:00.821Z,42.79
2022-08-10T10:40:39.306Z,43.52
2022-08-10T10:43:23.166Z,43.19
2022-08-10T10:46:04.608Z,43.03
2022-08-10T10:48:42.578Z,43.20
2022-08-10T10:51:19.552Z,43.01
2022-08-10T10:54:00.980Z,42.65
2022-08-10T10:56:37.134Z,42.64
2022-08-10T10:59:54.043Z,42.23
2022-08-10T11:02:33.129Z,42.56
2022-08-10T11:05:15.127Z,41.83
2022-08-10T11:07:53.374Z,41.98
2022-08-10T11:10:33.821Z,40.94
2022-08-10T11:14:25.881Z,40.89
2022-08-10T11:16:18.237Z,41.42
2022-08-10T11:19:04.610Z,41.55
2022-08-10T11:21:44.511Z,41.03
2022-08-10T11:24:42.667Z,41.26
2022-08-10T11:27:21.913Z,41.20
2022-08-10T11:29:58.939Z,41.27
2022-08-10T11:32:36.877Z,41.32
2022-08-10T11:35:13.674Z,41.09
2022-08-10T11:38:29.657Z,41.71
2022-08-10T11:40:46.738Z,41.10
2022-08-10T11:43:22.075Z,41.26
2022-08-10T11:45:56.340Z,41.08
2022-08-10T11:48:53.755Z,42.25
2022-08-10T11:51:28.641Z,42.43
2022-08-10T11:54:04.860Z,41.73
2022-08-10T11:56:45.865Z,41.86
2022-08-10T11:59:32.727Z,41.76
2022-08-10T12:02:01.719Z,42.08
2022-08-10T12:04:31.496Z,42.15
2022-08-10T12:07:04.924Z,41.65
2022-08-10T12:10:09.305Z,42.22
2022-08-10T12:12:47.023Z,41.93
2022-08-10T12:15:23.161Z,41.83
2022-08-10T12:17:55.907Z,42.09
2022-08-10T12:20:30.743Z,42.32
2022-08-10T12:23:04.280Z,42.26
2022-08-10T12:25:54.798Z,41.71
2022-08-10T12:28:51.479Z,42.48
2022-08-10T12:31:24.635Z,42.96
2022-08-10T12:34:05.408Z,42.34
2022-08-10T12:36:41.605Z,41.72
2022-08-10T12:39:16.660Z,41.87
2022-08-10T12:41:53.067Z,42.79
2022-08-10T12:44:41.210Z,42.10
2022-08-10T12:47:20.425Z,42.35
2022-08-10T12:50:29.474Z,41.67
2022-08-10T12:52:52.866Z,42.46
2022-08-10T12:55:22.931Z,42.50
2022-08-10T12:57:55.208Z,42.14
2022-08-10T13:00:30.150Z,42.70
2022-08-10T13:03:01.788Z,43.11
2022-08-10T13:05:31.013Z,43.04
2022-08-10T13:08:40.372Z,42.69
2022-08-10T13:12:33.739Z,42.53
2022-08-10T13:14:11.614Z,42.87
2022-08-10T13:16:42.016Z,42.51
2022-08-10T13:19:12.409Z,43.17
2022-08-10T13:21:42.919Z,43.73
2022-08-10T13:24:14.500Z,43.08
2022-08-10T13:26:49.531Z,43.35
2022-08-10T13:29:42.406Z,44.27
2022-08-10T13:32:12.618Z,43.92
2022-08-10T13:34:46.913Z,42.94
2022-08-10T13:37:17.379Z,43.41
2022-08-10T13:39:59.441Z,43.67
2022-08-10T13:42:32.374Z,44.26
2022-08-10T13:45:10.137Z,43.86
2022-08-10T13:47:48.577Z,44.19
2022-08-10T13:50:35.001Z,43.87
2022-08-10T13:53:11.454Z,44.68
2022-08-10T13:55:55.022Z,44.82
2022-08-10T13:58:26.674Z,45.24
2022-08-10T14:00:57.315Z,45.00
2022-08-10T14:03:26.992Z,44.51
2022-08-10T14:05:56.851Z,45.11
2022-08-10T14:08:27.977Z,45.31
2022-08-10T14:11:04.055Z,45.66
2022-08-10T14:13:44.715Z,45.67
2022-08-10T14:16:15.098Z,45.63
2022-08-10T14:18:46.013Z,45.93
2022-08-10T14:21:15.516Z,45.57
2022-08-10T14:23:53.273Z,45.75
2022-08-10T14:26:25.338Z,45.73
2022-08-10T14:28:57.412Z,46.00
2022-08-10T14:31:34.694Z,45.59
2022-08-10T14:34:05.299Z,45.81
2022-08-10T14:36:42.468Z,45.35
2022-08-10T14:39:16.678Z,45.04
2022-08-10T14:42:03.839Z,45.47
2022-08-10T14:44:56.027Z,45.47
2022-08-10T14:47:53.657Z,45.23
2022-08-10T14:50:31.754Z,45.24
2022-08-10T14:53:09.756Z,45.14
2022-08-10T14:55:59.698Z,45.07
2022-08-10T14:58:33.014Z,44.61
2022-08-10T15:01:03.933Z,44.90
2022-08-10T15:04:00.856Z,44.92
2022-08-10T15:06:30.767Z,45.27
2022-08-10T15:09:19.333Z,44.67
2022-08-10T15:12:15.757Z,44.74
2022-08-10T15:14:43.311Z,44.58
2022-08-10T15:17:15.292Z,45.29
2022-08-10T15:20:03.774Z,44.95
2022-08-10T15:22:38.660Z,44.87
2022-08-10T15:25:18.985Z,44.91
2022-08-10T15:27:56.523Z,45.39
2022-08-10T15:30:31.408Z,45.42
2022-08-10T15:33:21.537Z,45.48
2022-08-10T15:36:33.524Z,45.42
2022-08-10T15:39:04.105Z,45.90
2022-08-10T15:41:59.366Z,45.83
2022-08-10T15:44:41.679Z,46.06
2022-08-10T15:47:15.117Z,45.92
2022-08-10T15:49:53.444Z,45.91
2022-08-10T15:52:40.126Z,45.89
2022-08-10T15:55:43.451Z,45.96
2022-08-10T15:58:39.586Z,45.65
2022-08-10T16:02:04.061Z,46.18
2022-08-10T16:04:08.455Z,45.69
2022-08-10T16:06:43.332Z,45.75
2022-08-10T16:10:23.314Z,45.94
2022-08-10T16:12:14.356Z,45.92
2022-08-10T16:14:47.633Z,45.99
2022-08-10T16:17:17.595Z,46.22
2022-08-10T16:19:51.624Z,46.33
2022-08-10T16:22:36.085Z,46.51
2022-08-10T16:25:15.140Z,46.06
2022-08-10T16:27:45.111Z,46.38
2022-08-10T16:30:14.126Z,46.20
2022-08-10T16:32:44.925Z,46.96
2022-08-10T16:35:21.226Z,46.92
2022-08-10T16:37:57.931Z,47.17
2022-08-10T16:40:30.422Z,47.48
2022-08-10T16:43:01.374Z,47.75
2022-08-10T16:45:36.699Z,47.59
2022-08-10T16:48:06.559Z,47.93
2022-08-10T16:50:41.624Z,48.21
2022-08-10T16:53:15.438Z,48.19
2022-08-10T16:55:50.909Z,48.64
2022-08-10T16:58:25.159Z,48.59
2022-08-10T17:00:55.091Z,48.44
2022-08-10T17:04:07.414Z,48.46
2022-08-10T17:06:22.692Z,48.86
2022-08-10T17:08:54.317Z,48.62
2022-08-10T17:11:30.810Z,49.06
2022-08-10T17:13:59.974Z,48.95
2022-08-10T17:16:34.823Z,49.63
2022-08-10T17:19:04.884Z,49.11
2022-08-10T17:21:38.761Z,49.57
2022-08-10T17:24:22.736Z,49.56
2022-08-10T17:26:52.953Z,49.40
2022-08-10T17:29:58.229Z,49.16
2022-08-10T17:32:20.323Z,49.51
2022-08-10T17:34:54.262Z,49.40
2022-08-10T17:37:25.808Z,49.68
2022-08-10T17:40:00.681Z,49.80
2022-08-10T17:42:31.933Z,49.47
2022-08-10T17:45:01.561Z,49.53
2022-08-10T17:47:30.504Z,49.90
2022-08-10T17:50:00.233Z,49.59
2022-08-10T17:52:33.805Z,50.08
2022-08-10T17:55:06.398Z,50.21
2022-08-10T17:57:39.130Z,50.24
2022-08-10T18:00:13.536Z,50.49
2022-08-10T18:02:46.290Z,50.41
2022-08-10T18:05:16.178Z,50.45
2022-08-10T18:07:48.819Z,50.42
2022-08-10T18:10:19.784Z,51.00
2022-08-10T18:12:52.447Z,50.75
2022-08-10T18:15:23.215Z,51.06
2022-08-10T18:17:59.196Z,51.29
2022-08-10T18:20:35.861Z,51.72
2022-08-10T18:23:04.954Z,51.63
2022-08-10T18:25:40.904Z,51.65
2022-08-10T18:28:16.297Z,51.95
2022-08-10T18:30:48.226Z,52.23
2022-08-10T18:33:19.234Z,52.31
2022-08-10T18:35:51.248Z,52.89
2022-08-10T18:38:21.663Z,52.76
2022-08-10T18:40:54.418Z,53.32
2022-08-10T18:44:06.950Z,53.55
2022-08-10T18:46:23.364Z,53.80
2022-08-10T18:48:55.547Z,54.47
2022-08-10T18:51:27.682Z,54.54
2022-08-10T18:54:03.542Z,54.93
2022-08-10T18:56:51.508Z,55.03
2022-08-10T19:00:03.871Z,55.21
2022-08-10T19:02:55.404Z,55.77
2022-08-10T19:05:39.074Z,56.19
2022-08-10T19:08:30.848Z,56.51
2022-08-10T19:11:06.708Z,57.04
2022-08-10T19:13:50.949Z,56.62
2022-08-10T19:16:35.761Z,56.79
2022-08-10T19:19:23.307Z,57.55
2022-08-10T19:22:03.594Z,57.86
2022-08-10T19:24:45.074Z,58.12
2022-08-10T19:27:23.657Z,58.74
2022-08-10T19:30:11.860Z,59.03
2022-08-10T19:32:58.282Z,59.68
2022-08-10T19:36:03.020Z,59.80
2022-08-10T19:38:33.731Z,60.52
2022-08-10T19:41:13.632Z,60.69
2022-08-10T19:44:00.919Z,60.67
2022-08-10T19:46:39.702Z,60.96
2022-08-10T19:49:22.097Z,61.09
2022-08-10T19:51:57.834Z,61.16
2022-08-10T19:54:37.555Z,60.97
2022-08-10T19:57:14.430Z,61.58
2022-08-10T20:00:05.856Z,61.61
2022-08-10T20:02:51.655Z,61.68
2022-08-10T20:05:30.346Z,61.81
2022-08-10T20:08:07.494Z,62.22
2022-08-10T20:10:44.463Z,62.49
2022-08-10T20:13:21.535Z,62.72
2022-08-10T20:16:00.582Z,63.12
2022-08-10T20:18:35.688Z,63.20
2022-08-10T20:21:13.586Z,63.45
2022-08-10T20:23:53.832Z,63.80
2022-08-10T20:26:26.567Z,64.02
2022-08-10T20:29:23.201Z,64.15
2022-08-10T20:32:09.704Z,64.56
2022-08-10T20:34:45.247Z,64.68
2022-08-10T20:38:02.917Z,64.82
2022-08-10T20:40:24.823Z,65.13
2022-08-10T20:43:10.622Z,65.26
2022-08-10T20:46:06.833Z,65.19
2022-08-10T20:48:39.464Z,65.37
2022-08-10T20:51:12.595Z,65.39
2022-08-10T20:53:49.488Z,65.61
2022-08-10T20:56:26.600Z,65.77
2022-08-10T20:59:10.405Z,65.81
2022-08-10T21:02:06.115Z,65.74
2022-08-10T21:04:51.813Z,66.10
2022-08-10T21:08:01.792Z,66.01
2022-08-10T21:10:56.645Z,66.11
2022-08-10T21:13:52.278Z,65.85
2022-08-10T21:16:42.020Z,65.68
2022-08-10T21:19:53.575Z,65.63
2022-08-10T21:22:29.306Z,65.63
2022-08-10T21:25:03.326Z,65.38
2022-08-10T21:28:13.931Z,64.95
2022-08-10T21:31:02.421Z,64.91
2022-08-10T21:33:36.067Z,64.81
2022-08-10T21:36:11.660Z,64.44
2022-08-10T21:38:48.725Z,64.13
2022-08-10T21:41:57.723Z,64.01
2022-08-10T21:45:04.106Z,64.24
2022-08-10T21:48:16.610Z,64.06
2022-08-10T21:51:10.287Z,63.84
2022-08-10T21:54:09.045Z,64.03
2022-08-10T21:56:59.879Z,64.05
2022-08-10T21:59:56.113Z,64.03
2022-08-10T22:02:50.499Z,63.78
2022-08-10T22:05:42.292Z,64.10
2022-08-10T22:08:30.301Z,64.22
2022-08-10T22:11:17.804Z,64.32
2022-08-10T22:14:09.670Z,64.26
2022-08-10T22:17:05.320Z,64.55
2022-08-10T22:19:54.749Z,64.64
2022-08-10T22:22:56.162Z,64.59
2022-08-10T22:25:57.379Z,64.76
2022-08-10T22:28:45.764Z,65.09
2022-08-10T22:31:52.137Z,65.60
2022-08-10T22:35:03.968Z,65.91
2022-08-10T22:37:59.682Z,65.85
2022-08-10T22:40:54.041Z,66.20
2022-08-10T22:43:45.176Z,66.65
2022-08-10T22:46:37.437Z,66.62
2022-08-10T22:49:04.966Z,66.95
2022-08-10T22:51:57.200Z,67.24
2022-08-10T22:55:02.819Z,67.30
2022-08-10T22:57:48.275Z,67.66
2022-08-10T23:00:18.951Z,67.96
2022-08-10T23:02:54.537Z,68.21
2022-08-10T23:05:30.831Z,68.24
2022-08-10T23:08:04.915Z,68.53
2022-08-10T23:10:42.318Z,68.81
2022-08-10T23:13:26.397Z,69.34
2022-08-10T23:16:24.320Z,69.15
2022-08-10T23:19:11.110Z,69.16
2022-08-10T23:22:04.629Z,69.44
2022-08-10T23:24:38.791Z,69.67
2022-08-10T23:27:12.378Z,69.75
2022-08-10T23:30:09.842Z,70.09
2022-08-10T23:32:42.517Z,70.04
2022-08-10T23:36:31.179Z,70.39
2022-08-10T23:38:04.574Z,70.08
2022-08-10T23:40:36.591Z,70.05
2022-08-10T23:43:07.075Z,70.27
2022-08-10T23:45:52.571Z,70.13
2022-08-10T23:48:25.139Z,70.04
2022-08-10T23:50:59.429Z,69.99
2022-08-10T23:53:31.555Z,70.25
2022-08-10T23:56:06.848Z,70.12
2022-08-10T23:58:41.267Z,70.49
